sensor_id;sensor_type;location;lat;lon;timestamp;P1;durP1;ratioP1;P2;durP2;ratioP2
55268;SDS011;41131;42.990;21.954;2023-02-28T00:01:03;70.90;;;46.25;;
55268;SDS011;41131;42.990;21.954;2023-02-28T00:03:30;70.95;;;48.13;;
55268;SDS011;41131;42.990;21.954;2023-02-28T00:06:00;71.60;;;51.15;;
55268;SDS011;41131;42.990;21.954;2023-02-28T00:08:26;81.40;;;52.78;;
55268;SDS011;41131;42.990;21.954;2023-02-28T00:10:52;71.38;;;45.58;;
55268;SDS011;41131;42.990;21.954;2023-02-28T00:13:18;92.90;;;56.30;;
55268;SDS011;41131;42.990;21.954;2023-02-28T00:15:44;73.45;;;48.30;;
55268;SDS011;41131;42.990;21.954;2023-02-28T00:18:11;82.30;;;54.22;;
55268;SDS011;41131;42.990;21.954;2023-02-28T00:20:37;72.57;;;47.85;;
55268;SDS011;41131;42.990;21.954;2023-02-28T00:23:03;71.70;;;48.92;;
55268;SDS011;41131;42.990;21.954;2023-02-28T00:25:29;82.30;;;54.45;;
55268;SDS011;41131;42.990;21.954;2023-02-28T00:27:55;82.68;;;53.38;;
55268;SDS011;41131;42.990;21.954;2023-02-28T00:30:22;82.47;;;55.00;;
55268;SDS011;41131;42.990;21.954;2023-02-28T00:32:48;80.93;;;54.95;;
55268;SDS011;41131;42.990;21.954;2023-02-28T00:35:15;77.95;;;50.22;;
55268;SDS011;41131;42.990;21.954;2023-02-28T00:37:41;75.68;;;47.95;;
55268;SDS011;41131;42.990;21.954;2023-02-28T00:40:08;72.82;;;46.97;;
55268;SDS011;41131;42.990;21.954;2023-02-28T00:42:35;69.50;;;46.88;;
55268;SDS011;41131;42.990;21.954;2023-02-28T00:45:01;68.90;;;46.00;;
55268;SDS011;41131;42.990;21.954;2023-02-28T00:47:29;74.45;;;48.17;;
55268;SDS011;41131;42.990;21.954;2023-02-28T00:49:55;74.07;;;47.38;;
55268;SDS011;41131;42.990;21.954;2023-02-28T00:52:21;72.32;;;46.97;;
55268;SDS011;41131;42.990;21.954;2023-02-28T00:54:47;70.75;;;44.42;;
55268;SDS011;41131;42.990;21.954;2023-02-28T00:57:13;70.05;;;45.78;;
55268;SDS011;41131;42.990;21.954;2023-02-28T00:59:39;76.97;;;47.05;;
55268;SDS011;41131;42.990;21.954;2023-02-28T01:02:05;65.78;;;42.10;;
55268;SDS011;41131;42.990;21.954;2023-02-28T01:04:31;68.72;;;45.17;;
55268;SDS011;41131;42.990;21.954;2023-02-28T01:06:57;72.00;;;45.65;;
55268;SDS011;41131;42.990;21.954;2023-02-28T01:09:23;71.38;;;45.33;;
55268;SDS011;41131;42.990;21.954;2023-02-28T01:11:49;71.47;;;44.97;;
55268;SDS011;41131;42.990;21.954;2023-02-28T01:14:16;70.38;;;46.97;;
55268;SDS011;41131;42.990;21.954;2023-02-28T01:16:43;67.15;;;43.35;;
55268;SDS011;41131;42.990;21.954;2023-02-28T01:19:09;67.57;;;44.95;;
55268;SDS011;41131;42.990;21.954;2023-02-28T01:21:35;76.50;;;50.10;;
55268;SDS011;41131;42.990;21.954;2023-02-28T01:24:02;73.10;;;50.90;;
55268;SDS011;41131;42.990;21.954;2023-02-28T01:26:28;65.53;;;45.53;;
55268;SDS011;41131;42.990;21.954;2023-02-28T01:28:54;65.15;;;44.28;;
55268;SDS011;41131;42.990;21.954;2023-02-28T01:31:21;65.13;;;42.25;;
55268;SDS011;41131;42.990;21.954;2023-02-28T01:33:47;65.88;;;43.03;;
55268;SDS011;41131;42.990;21.954;2023-02-28T01:36:15;65.47;;;42.55;;
55268;SDS011;41131;42.990;21.954;2023-02-28T01:38:41;66.15;;;42.53;;
55268;SDS011;41131;42.990;21.954;2023-02-28T01:41:08;67.43;;;42.60;;
55268;SDS011;41131;42.990;21.954;2023-02-28T01:46:08;64.85;;;41.40;;
55268;SDS011;41131;42.990;21.954;2023-02-28T01:48:35;61.72;;;41.38;;
55268;SDS011;41131;42.990;21.954;2023-02-28T01:51:15;64.25;;;41.35;;
55268;SDS011;41131;42.990;21.954;2023-02-28T01:53:44;66.25;;;41.55;;
55268;SDS011;41131;42.990;21.954;2023-02-28T01:56:11;66.18;;;42.45;;
55268;SDS011;41131;42.990;21.954;2023-02-28T01:58:45;69.80;;;42.22;;
55268;SDS011;41131;42.990;21.954;2023-02-28T02:01:12;65.13;;;41.60;;
55268;SDS011;41131;42.990;21.954;2023-02-28T02:03:46;67.32;;;42.45;;
55268;SDS011;41131;42.990;21.954;2023-02-28T02:06:13;68.45;;;43.83;;
55268;SDS011;41131;42.990;21.954;2023-02-28T02:08:39;66.68;;;42.53;;
55268;SDS011;41131;42.990;21.954;2023-02-28T02:11:05;71.57;;;43.15;;
55268;SDS011;41131;42.990;21.954;2023-02-28T02:16:23;66.53;;;42.95;;
55268;SDS011;41131;42.990;21.954;2023-02-28T02:18:53;71.18;;;45.10;;
55268;SDS011;41131;42.990;21.954;2023-02-28T02:26:52;61.45;;;38.95;;
55268;SDS011;41131;42.990;21.954;2023-02-28T02:45:25;65.75;;;42.08;;
55268;SDS011;41131;42.990;21.954;2023-02-28T02:47:53;65.88;;;42.97;;
55268;SDS011;41131;42.990;21.954;2023-02-28T02:50:20;66.70;;;42.92;;
55268;SDS011;41131;42.990;21.954;2023-02-28T02:52:49;70.07;;;41.60;;
55268;SDS011;41131;42.990;21.954;2023-02-28T02:55:17;68.55;;;43.53;;
55268;SDS011;41131;42.990;21.954;2023-02-28T02:57:47;64.60;;;41.10;;
55268;SDS011;41131;42.990;21.954;2023-02-28T03:00:15;65.00;;;41.75;;
55268;SDS011;41131;42.990;21.954;2023-02-28T03:02:42;57.38;;;38.88;;
55268;SDS011;41131;42.990;21.954;2023-02-28T03:05:12;64.55;;;41.97;;
55268;SDS011;41131;42.990;21.954;2023-02-28T03:07:40;64.95;;;41.67;;
55268;SDS011;41131;42.990;21.954;2023-02-28T03:10:48;72.70;;;41.85;;
55268;SDS011;41131;42.990;21.954;2023-02-28T03:13:00;63.97;;;42.03;;
55268;SDS011;41131;42.990;21.954;2023-02-28T03:15:38;65.78;;;42.40;;
55268;SDS011;41131;42.990;21.954;2023-02-28T03:18:08;63.95;;;40.95;;
55268;SDS011;41131;42.990;21.954;2023-02-28T03:26:08;68.40;;;42.60;;
55268;SDS011;41131;42.990;21.954;2023-02-28T03:33:36;84.25;;;51.95;;
55268;SDS011;41131;42.990;21.954;2023-02-28T03:36:04;63.95;;;41.83;;
55268;SDS011;41131;42.990;21.954;2023-02-28T03:38:34;58.50;;;37.75;;
55268;SDS011;41131;42.990;21.954;2023-02-28T03:41:04;58.53;;;37.03;;
55268;SDS011;41131;42.990;21.954;2023-02-28T03:43:31;56.08;;;37.58;;
55268;SDS011;41131;42.990;21.954;2023-02-28T03:45:59;61.75;;;39.63;;
55268;SDS011;41131;42.990;21.954;2023-02-28T03:48:32;61.58;;;36.70;;
55268;SDS011;41131;42.990;21.954;2023-02-28T03:51:00;63.58;;;38.83;;
55268;SDS011;41131;42.990;21.954;2023-02-28T03:53:28;66.05;;;42.53;;
55268;SDS011;41131;42.990;21.954;2023-02-28T03:55:59;63.40;;;39.55;;
55268;SDS011;41131;42.990;21.954;2023-02-28T03:58:33;57.42;;;38.95;;
55268;SDS011;41131;42.990;21.954;2023-02-28T04:01:07;62.00;;;39.08;;
55268;SDS011;41131;42.990;21.954;2023-02-28T04:03:38;56.63;;;39.00;;
55268;SDS011;41131;42.990;21.954;2023-02-28T04:06:07;59.72;;;39.30;;
55268;SDS011;41131;42.990;21.954;2023-02-28T04:08:34;81.78;;;39.33;;
55268;SDS011;41131;42.990;21.954;2023-02-28T04:11:04;62.38;;;38.55;;
55268;SDS011;41131;42.990;21.954;2023-02-28T04:13:35;62.75;;;39.80;;
55268;SDS011;41131;42.990;21.954;2023-02-28T04:16:01;65.63;;;43.33;;
55268;SDS011;41131;42.990;21.954;2023-02-28T04:18:27;80.65;;;49.90;;
55268;SDS011;41131;42.990;21.954;2023-02-28T04:20:53;103.38;;;59.53;;
55268;SDS011;41131;42.990;21.954;2023-02-28T04:23:19;93.85;;;55.95;;
55268;SDS011;41131;42.990;21.954;2023-02-28T04:25:45;82.75;;;50.42;;
55268;SDS011;41131;42.990;21.954;2023-02-28T04:28:11;78.47;;;49.40;;
55268;SDS011;41131;42.990;21.954;2023-02-28T04:30:37;63.53;;;40.92;;
55268;SDS011;41131;42.990;21.954;2023-02-28T04:33:04;73.13;;;41.35;;
55268;SDS011;41131;42.990;21.954;2023-02-28T04:35:30;74.28;;;41.55;;
55268;SDS011;41131;42.990;21.954;2023-02-28T04:37:56;75.82;;;43.60;;
55268;SDS011;41131;42.990;21.954;2023-02-28T04:40:22;71.32;;;39.53;;
55268;SDS011;41131;42.990;21.954;2023-02-28T04:42:48;66.90;;;41.35;;
55268;SDS011;41131;42.990;21.954;2023-02-28T04:45:14;64.00;;;40.42;;
55268;SDS011;41131;42.990;21.954;2023-02-28T04:47:40;65.45;;;39.13;;
55268;SDS011;41131;42.990;21.954;2023-02-28T04:50:06;66.88;;;41.45;;
55268;SDS011;41131;42.990;21.954;2023-02-28T04:52:32;65.90;;;41.60;;
55268;SDS011;41131;42.990;21.954;2023-02-28T04:54:58;71.22;;;42.40;;
55268;SDS011;41131;42.990;21.954;2023-02-28T04:57:25;72.03;;;42.78;;
55268;SDS011;41131;42.990;21.954;2023-02-28T04:59:51;67.70;;;42.15;;
55268;SDS011;41131;42.990;21.954;2023-02-28T05:02:17;73.97;;;45.67;;
55268;SDS011;41131;42.990;21.954;2023-02-28T05:04:43;72.25;;;47.42;;
55268;SDS011;41131;42.990;21.954;2023-02-28T05:07:09;74.65;;;47.55;;
55268;SDS011;41131;42.990;21.954;2023-02-28T05:09:35;122.57;;;78.63;;
55268;SDS011;41131;42.990;21.954;2023-02-28T05:12:01;118.35;;;77.45;;
55268;SDS011;41131;42.990;21.954;2023-02-28T05:14:28;83.55;;;51.47;;
55268;SDS011;41131;42.990;21.954;2023-02-28T05:16:54;79.90;;;48.60;;
55268;SDS011;41131;42.990;21.954;2023-02-28T05:19:20;91.03;;;54.95;;
55268;SDS011;41131;42.990;21.954;2023-02-28T05:21:53;92.10;;;60.65;;
55268;SDS011;41131;42.990;21.954;2023-02-28T05:24:19;102.63;;;61.95;;
55268;SDS011;41131;42.990;21.954;2023-02-28T05:26:47;101.00;;;63.00;;
55268;SDS011;41131;42.990;21.954;2023-02-28T05:29:14;97.60;;;59.85;;
55268;SDS011;41131;42.990;21.954;2023-02-28T05:31:40;102.95;;;62.97;;
55268;SDS011;41131;42.990;21.954;2023-02-28T05:34:06;93.25;;;57.50;;
55268;SDS011;41131;42.990;21.954;2023-02-28T05:36:32;89.78;;;56.13;;
55268;SDS011;41131;42.990;21.954;2023-02-28T05:38:58;93.47;;;54.90;;
55268;SDS011;41131;42.990;21.954;2023-02-28T05:41:24;86.30;;;50.10;;
55268;SDS011;41131;42.990;21.954;2023-02-28T05:43:51;78.75;;;48.15;;
55268;SDS011;41131;42.990;21.954;2023-02-28T05:46:17;68.72;;;43.53;;
55268;SDS011;41131;42.990;21.954;2023-02-28T05:48:45;74.97;;;46.58;;
55268;SDS011;41131;42.990;21.954;2023-02-28T05:51:12;77.40;;;45.30;;
55268;SDS011;41131;42.990;21.954;2023-02-28T05:53:38;82.30;;;48.58;;
55268;SDS011;41131;42.990;21.954;2023-02-28T05:56:04;86.05;;;52.80;;
55268;SDS011;41131;42.990;21.954;2023-02-28T05:58:30;76.65;;;48.40;;
55268;SDS011;41131;42.990;21.954;2023-02-28T06:00:57;76.90;;;47.45;;
55268;SDS011;41131;42.990;21.954;2023-02-28T06:03:25;76.70;;;46.00;;
55268;SDS011;41131;42.990;21.954;2023-02-28T06:05:51;70.95;;;44.25;;
55268;SDS011;41131;42.990;21.954;2023-02-28T06:08:17;81.05;;;50.53;;
55268;SDS011;41131;42.990;21.954;2023-02-28T06:10:43;136.20;;;94.68;;
55268;SDS011;41131;42.990;21.954;2023-02-28T06:13:10;81.43;;;49.60;;
55268;SDS011;41131;42.990;21.954;2023-02-28T06:15:37;87.40;;;49.55;;
55268;SDS011;41131;42.990;21.954;2023-02-28T06:18:03;82.40;;;48.08;;
55268;SDS011;41131;42.990;21.954;2023-02-28T06:20:31;86.65;;;48.25;;
55268;SDS011;41131;42.990;21.954;2023-02-28T06:22:58;149.88;;;49.40;;
55268;SDS011;41131;42.990;21.954;2023-02-28T06:25:25;75.97;;;45.22;;
55268;SDS011;41131;42.990;21.954;2023-02-28T06:27:51;74.95;;;43.75;;
55268;SDS011;41131;42.990;21.954;2023-02-28T06:30:17;79.30;;;46.75;;
55268;SDS011;41131;42.990;21.954;2023-02-28T06:32:43;75.57;;;44.45;;
55268;SDS011;41131;42.990;21.954;2023-02-28T06:35:09;86.38;;;51.35;;
55268;SDS011;41131;42.990;21.954;2023-02-28T06:37:35;83.38;;;46.45;;
55268;SDS011;41131;42.990;21.954;2023-02-28T06:40:02;82.38;;;45.08;;
55268;SDS011;41131;42.990;21.954;2023-02-28T06:42:30;93.32;;;54.10;;
55268;SDS011;41131;42.990;21.954;2023-02-28T06:44:57;93.20;;;52.30;;
55268;SDS011;41131;42.990;21.954;2023-02-28T06:47:23;88.45;;;50.05;;
55268;SDS011;41131;42.990;21.954;2023-02-28T06:49:49;86.72;;;48.33;;
55268;SDS011;41131;42.990;21.954;2023-02-28T06:52:16;85.25;;;48.67;;
55268;SDS011;41131;42.990;21.954;2023-02-28T06:54:42;92.47;;;50.70;;
55268;SDS011;41131;42.990;21.954;2023-02-28T06:57:08;95.90;;;49.03;;
55268;SDS011;41131;42.990;21.954;2023-02-28T06:59:34;93.10;;;50.28;;
55268;SDS011;41131;42.990;21.954;2023-02-28T07:02:01;88.80;;;48.65;;
55268;SDS011;41131;42.990;21.954;2023-02-28T07:04:27;90.97;;;53.05;;
55268;SDS011;41131;42.990;21.954;2023-02-28T07:06:54;92.80;;;51.05;;
55268;SDS011;41131;42.990;21.954;2023-02-28T07:09:21;92.40;;;55.00;;
55268;SDS011;41131;42.990;21.954;2023-02-28T07:11:48;85.78;;;49.15;;
55268;SDS011;41131;42.990;21.954;2023-02-28T07:14:15;93.57;;;50.90;;
55268;SDS011;41131;42.990;21.954;2023-02-28T07:16:41;96.15;;;51.83;;
55268;SDS011;41131;42.990;21.954;2023-02-28T07:19:08;101.18;;;56.22;;
55268;SDS011;41131;42.990;21.954;2023-02-28T07:21:34;87.88;;;51.63;;
55268;SDS011;41131;42.990;21.954;2023-02-28T07:24:01;98.18;;;55.38;;
55268;SDS011;41131;42.990;21.954;2023-02-28T07:26:27;101.88;;;55.13;;
55268;SDS011;41131;42.990;21.954;2023-02-28T07:28:53;119.55;;;68.80;;
55268;SDS011;41131;42.990;21.954;2023-02-28T07:31:19;85.60;;;52.97;;
55268;SDS011;41131;42.990;21.954;2023-02-28T07:33:45;94.40;;;56.45;;
55268;SDS011;41131;42.990;21.954;2023-02-28T07:36:12;96.47;;;57.80;;
55268;SDS011;41131;42.990;21.954;2023-02-28T07:38:40;126.47;;;71.72;;
55268;SDS011;41131;42.990;21.954;2023-02-28T07:41:06;98.55;;;59.20;;
55268;SDS011;41131;42.990;21.954;2023-02-28T07:43:33;96.40;;;54.05;;
55268;SDS011;41131;42.990;21.954;2023-02-28T07:46:04;109.65;;;53.88;;
55268;SDS011;41131;42.990;21.954;2023-02-28T07:48:31;96.70;;;55.00;;
55268;SDS011;41131;42.990;21.954;2023-02-28T07:50:57;106.10;;;62.88;;
55268;SDS011;41131;42.990;21.954;2023-02-28T07:53:24;110.03;;;68.38;;
55268;SDS011;41131;42.990;21.954;2023-02-28T07:55:50;121.40;;;73.57;;
55268;SDS011;41131;42.990;21.954;2023-02-28T07:58:16;107.72;;;64.30;;
55268;SDS011;41131;42.990;21.954;2023-02-28T08:00:42;104.72;;;60.90;;
55268;SDS011;41131;42.990;21.954;2023-02-28T08:03:12;118.97;;;71.32;;
55268;SDS011;41131;42.990;21.954;2023-02-28T08:05:40;138.98;;;93.03;;
55268;SDS011;41131;42.990;21.954;2023-02-28T08:08:07;117.22;;;71.07;;
55268;SDS011;41131;42.990;21.954;2023-02-28T08:10:33;252.75;;;169.63;;
55268;SDS011;41131;42.990;21.954;2023-02-28T08:12:59;109.15;;;66.45;;
55268;SDS011;41131;42.990;21.954;2023-02-28T08:15:25;129.48;;;77.53;;
55268;SDS011;41131;42.990;21.954;2023-02-28T08:17:52;124.13;;;83.10;;
55268;SDS011;41131;42.990;21.954;2023-02-28T08:20:21;125.45;;;79.80;;
55268;SDS011;41131;42.990;21.954;2023-02-28T08:22:47;191.80;;;111.22;;
55268;SDS011;41131;42.990;21.954;2023-02-28T08:25:13;267.10;;;148.18;;
55268;SDS011;41131;42.990;21.954;2023-02-28T08:27:40;112.35;;;78.88;;
55268;SDS011;41131;42.990;21.954;2023-02-28T08:30:06;118.07;;;80.43;;
55268;SDS011;41131;42.990;21.954;2023-02-28T08:32:33;85.57;;;54.95;;
55268;SDS011;41131;42.990;21.954;2023-02-28T08:34:59;87.47;;;57.75;;
55268;SDS011;41131;42.990;21.954;2023-02-28T08:37:25;117.78;;;73.05;;
55268;SDS011;41131;42.990;21.954;2023-02-28T08:39:51;98.80;;;62.00;;
55268;SDS011;41131;42.990;21.954;2023-02-28T08:42:17;156.07;;;90.93;;
55268;SDS011;41131;42.990;21.954;2023-02-28T08:44:43;79.50;;;49.22;;
55268;SDS011;41131;42.990;21.954;2023-02-28T08:47:09;73.72;;;44.17;;
55268;SDS011;41131;42.990;21.954;2023-02-28T08:49:36;73.38;;;46.17;;
55268;SDS011;41131;42.990;21.954;2023-02-28T08:52:02;74.15;;;46.53;;
55268;SDS011;41131;42.990;21.954;2023-02-28T08:54:29;76.85;;;47.33;;
55268;SDS011;41131;42.990;21.954;2023-02-28T08:56:57;74.18;;;46.78;;
55268;SDS011;41131;42.990;21.954;2023-02-28T08:59:23;95.45;;;50.78;;
55268;SDS011;41131;42.990;21.954;2023-02-28T09:01:49;88.50;;;50.97;;
55268;SDS011;41131;42.990;21.954;2023-02-28T09:04:15;85.18;;;46.00;;
55268;SDS011;41131;42.990;21.954;2023-02-28T09:06:41;72.68;;;44.03;;
55268;SDS011;41131;42.990;21.954;2023-02-28T09:09:07;92.97;;;51.97;;
55268;SDS011;41131;42.990;21.954;2023-02-28T09:11:34;136.50;;;59.42;;
55268;SDS011;41131;42.990;21.954;2023-02-28T09:14:00;291.08;;;71.35;;
55268;SDS011;41131;42.990;21.954;2023-02-28T09:16:28;88.60;;;49.05;;
55268;SDS011;41131;42.990;21.954;2023-02-28T09:18:54;102.15;;;55.60;;
55268;SDS011;41131;42.990;21.954;2023-02-28T09:21:20;96.25;;;56.08;;
55268;SDS011;41131;42.990;21.954;2023-02-28T09:23:47;94.43;;;58.35;;
55268;SDS011;41131;42.990;21.954;2023-02-28T09:26:14;104.13;;;55.08;;
55268;SDS011;41131;42.990;21.954;2023-02-28T09:28:41;96.20;;;53.30;;
55268;SDS011;41131;42.990;21.954;2023-02-28T09:31:10;231.85;;;134.15;;
55268;SDS011;41131;42.990;21.954;2023-02-28T09:33:37;92.00;;;53.75;;
55268;SDS011;41131;42.990;21.954;2023-02-28T09:36:03;97.97;;;55.08;;
55268;SDS011;41131;42.990;21.954;2023-02-28T09:38:29;97.50;;;51.33;;
55268;SDS011;41131;42.990;21.954;2023-02-28T09:41:00;99.80;;;57.85;;
55268;SDS011;41131;42.990;21.954;2023-02-28T09:43:28;100.20;;;60.70;;
55268;SDS011;41131;42.990;21.954;2023-02-28T09:48:41;129.85;;;59.20;;
55268;SDS011;41131;42.990;21.954;2023-02-28T09:53:44;92.50;;;54.72;;
55268;SDS011;41131;42.990;21.954;2023-02-28T09:56:15;86.38;;;53.83;;
55268;SDS011;41131;42.990;21.954;2023-02-28T09:58:46;87.82;;;55.67;;
55268;SDS011;41131;42.990;21.954;2023-02-28T10:01:21;93.07;;;55.00;;
55268;SDS011;41131;42.990;21.954;2023-02-28T10:06:17;110.97;;;60.95;;
55268;SDS011;41131;42.990;21.954;2023-02-28T10:11:20;108.47;;;59.78;;
55268;SDS011;41131;42.990;21.954;2023-02-28T10:13:56;115.18;;;65.50;;
55268;SDS011;41131;42.990;21.954;2023-02-28T10:16:31;85.97;;;51.30;;
55268;SDS011;41131;42.990;21.954;2023-02-28T10:21:35;85.80;;;49.45;;
55268;SDS011;41131;42.990;21.954;2023-02-28T10:24:04;100.13;;;57.65;;
55268;SDS011;41131;42.990;21.954;2023-02-28T10:26:31;83.53;;;51.13;;
55268;SDS011;41131;42.990;21.954;2023-02-28T10:28:57;93.50;;;56.63;;
55268;SDS011;41131;42.990;21.954;2023-02-28T10:31:23;100.30;;;51.67;;
55268;SDS011;41131;42.990;21.954;2023-02-28T10:33:49;100.45;;;54.72;;
55268;SDS011;41131;42.990;21.954;2023-02-28T10:36:16;97.88;;;60.15;;
55268;SDS011;41131;42.990;21.954;2023-02-28T10:38:43;93.13;;;55.80;;
55268;SDS011;41131;42.990;21.954;2023-02-28T10:41:10;87.88;;;50.60;;
55268;SDS011;41131;42.990;21.954;2023-02-28T10:43:38;87.03;;;54.30;;
55268;SDS011;41131;42.990;21.954;2023-02-28T10:51:04;83.13;;;50.42;;
55268;SDS011;41131;42.990;21.954;2023-02-28T10:53:35;90.78;;;53.45;;
55268;SDS011;41131;42.990;21.954;2023-02-28T11:03:47;79.68;;;44.85;;
55268;SDS011;41131;42.990;21.954;2023-02-28T11:08:47;85.18;;;49.20;;
55268;SDS011;41131;42.990;21.954;2023-02-28T11:11:14;105.22;;;51.30;;
55268;SDS011;41131;42.990;21.954;2023-02-28T11:13:42;92.95;;;51.50;;
55268;SDS011;41131;42.990;21.954;2023-02-28T11:16:10;85.30;;;50.65;;
55268;SDS011;41131;42.990;21.954;2023-02-28T11:18:44;91.82;;;48.92;;
55268;SDS011;41131;42.990;21.954;2023-02-28T11:23:51;89.07;;;46.45;;
55268;SDS011;41131;42.990;21.954;2023-02-28T11:26:34;81.72;;;46.70;;
55268;SDS011;41131;42.990;21.954;2023-02-28T11:29:23;82.47;;;51.45;;
55268;SDS011;41131;42.990;21.954;2023-02-28T11:34:34;86.45;;;49.90;;
55268;SDS011;41131;42.990;21.954;2023-02-28T11:37:00;111.22;;;53.58;;
55268;SDS011;41131;42.990;21.954;2023-02-28T11:39:30;101.57;;;58.05;;
55268;SDS011;41131;42.990;21.954;2023-02-28T11:49:57;82.22;;;48.30;;
55268;SDS011;41131;42.990;21.954;2023-02-28T11:52:36;104.15;;;49.60;;
55268;SDS011;41131;42.990;21.954;2023-02-28T11:55:07;82.78;;;51.05;;
55268;SDS011;41131;42.990;21.954;2023-02-28T12:05:44;112.32;;;73.03;;
55268;SDS011;41131;42.990;21.954;2023-02-28T12:13:25;111.53;;;72.68;;
55268;SDS011;41131;42.990;21.954;2023-02-28T12:16:09;98.68;;;64.45;;
55268;SDS011;41131;42.990;21.954;2023-02-28T12:21:20;128.85;;;65.18;;
55268;SDS011;41131;42.990;21.954;2023-02-28T12:28:53;116.60;;;72.10;;
55268;SDS011;41131;42.990;21.954;2023-02-28T12:31:21;113.38;;;61.47;;
55268;SDS011;41131;42.990;21.954;2023-02-28T12:33:53;107.35;;;77.10;;
55268;SDS011;41131;42.990;21.954;2023-02-28T12:36:22;107.38;;;74.05;;
55268;SDS011;41131;42.990;21.954;2023-02-28T12:41:22;120.28;;;81.75;;
55268;SDS011;41131;42.990;21.954;2023-02-28T12:43:53;121.75;;;77.45;;
55268;SDS011;41131;42.990;21.954;2023-02-28T12:46:23;124.07;;;75.10;;
55268;SDS011;41131;42.990;21.954;2023-02-28T12:49:13;109.78;;;69.65;;
55268;SDS011;41131;42.990;21.954;2023-02-28T12:51:37;118.88;;;75.30;;
55268;SDS011;41131;42.990;21.954;2023-02-28T12:59:13;121.63;;;76.85;;
55268;SDS011;41131;42.990;21.954;2023-02-28T13:09:39;104.47;;;64.50;;
55268;SDS011;41131;42.990;21.954;2023-02-28T13:12:14;99.38;;;64.95;;
55268;SDS011;41131;42.990;21.954;2023-02-28T13:14:40;111.47;;;69.22;;
55268;SDS011;41131;42.990;21.954;2023-02-28T13:19:40;123.05;;;71.78;;
55268;SDS011;41131;42.990;21.954;2023-02-28T13:22:16;105.68;;;66.65;;
55268;SDS011;41131;42.990;21.954;2023-02-28T13:27:19;141.90;;;66.63;;
55268;SDS011;41131;42.990;21.954;2023-02-28T13:29:49;113.80;;;65.10;;
55268;SDS011;41131;42.990;21.954;2023-02-28T13:39:55;109.00;;;67.25;;
55268;SDS011;41131;42.990;21.954;2023-02-28T13:52:46;123.13;;;68.13;;
55268;SDS011;41131;42.990;21.954;2023-02-28T14:05:15;131.88;;;83.00;;
55268;SDS011;41131;42.990;21.954;2023-02-28T14:07:46;115.30;;;72.68;;
55268;SDS011;41131;42.990;21.954;2023-02-28T14:10:24;133.27;;;75.10;;
55268;SDS011;41131;42.990;21.954;2023-02-28T14:23:46;129.87;;;75.57;;
55268;SDS011;41131;42.990;21.954;2023-02-28T14:37:26;144.40;;;82.93;;
55268;SDS011;41131;42.990;21.954;2023-02-28T14:39:54;133.30;;;84.03;;
55268;SDS011;41131;42.990;21.954;2023-02-28T14:42:28;155.80;;;93.20;;
55268;SDS011;41131;42.990;21.954;2023-02-28T14:44:55;144.32;;;91.28;;
55268;SDS011;41131;42.990;21.954;2023-02-28T14:47:21;133.10;;;80.72;;
55268;SDS011;41131;42.990;21.954;2023-02-28T14:49:49;132.57;;;81.88;;
55268;SDS011;41131;42.990;21.954;2023-02-28T14:52:22;139.48;;;85.93;;
55268;SDS011;41131;42.990;21.954;2023-02-28T14:54:52;148.30;;;94.20;;
55268;SDS011;41131;42.990;21.954;2023-02-28T14:57:23;148.05;;;97.00;;
55268;SDS011;41131;42.990;21.954;2023-02-28T14:59:56;170.75;;;107.60;;
55268;SDS011;41131;42.990;21.954;2023-02-28T15:02:24;149.38;;;91.43;;
55268;SDS011;41131;42.990;21.954;2023-02-28T15:04:54;165.80;;;101.43;;
55268;SDS011;41131;42.990;21.954;2023-02-28T15:07:20;153.48;;;100.28;;
55268;SDS011;41131;42.990;21.954;2023-02-28T15:12:37;136.43;;;90.15;;
55268;SDS011;41131;42.990;21.954;2023-02-28T15:15:05;174.30;;;107.95;;
55268;SDS011;41131;42.990;21.954;2023-02-28T15:17:32;119.85;;;77.07;;
55268;SDS011;41131;42.990;21.954;2023-02-28T15:19:59;145.63;;;93.55;;
55268;SDS011;41131;42.990;21.954;2023-02-28T15:22:30;193.25;;;127.80;;
55268;SDS011;41131;42.990;21.954;2023-02-28T15:25:00;138.07;;;89.00;;
55268;SDS011;41131;42.990;21.954;2023-02-28T15:27:29;99.22;;;57.60;;
55268;SDS011;41131;42.990;21.954;2023-02-28T15:29:59;89.75;;;51.30;;
55268;SDS011;41131;42.990;21.954;2023-02-28T15:34:52;99.07;;;60.08;;
55268;SDS011;41131;42.990;21.954;2023-02-28T15:39:51;102.63;;;59.03;;
55268;SDS011;41131;42.990;21.954;2023-02-28T15:42:21;131.93;;;67.00;;
55268;SDS011;41131;42.990;21.954;2023-02-28T15:44:47;101.70;;;56.97;;
55268;SDS011;41131;42.990;21.954;2023-02-28T15:47:20;95.45;;;52.72;;
55268;SDS011;41131;42.990;21.954;2023-02-28T15:49:54;96.55;;;53.50;;
55268;SDS011;41131;42.990;21.954;2023-02-28T15:52:40;90.55;;;50.20;;
55268;SDS011;41131;42.990;21.954;2023-02-28T15:55:20;115.68;;;70.00;;
55268;SDS011;41131;42.990;21.954;2023-02-28T15:57:51;188.07;;;82.13;;
55268;SDS011;41131;42.990;21.954;2023-02-28T16:00:20;120.70;;;61.60;;
55268;SDS011;41131;42.990;21.954;2023-02-28T16:02:47;104.57;;;56.58;;
55268;SDS011;41131;42.990;21.954;2023-02-28T16:07:40;122.80;;;77.70;;
55268;SDS011;41131;42.990;21.954;2023-02-28T16:10:07;126.03;;;78.82;;
55268;SDS011;41131;42.990;21.954;2023-02-28T16:12:35;134.63;;;80.60;;
55268;SDS011;41131;42.990;21.954;2023-02-28T16:15:05;121.05;;;73.57;;
55268;SDS011;41131;42.990;21.954;2023-02-28T16:17:33;136.13;;;79.50;;
55268;SDS011;41131;42.990;21.954;2023-02-28T16:19:59;140.90;;;94.50;;
55268;SDS011;41131;42.990;21.954;2023-02-28T16:22:25;107.20;;;66.05;;
55268;SDS011;41131;42.990;21.954;2023-02-28T16:24:52;110.40;;;69.43;;
55268;SDS011;41131;42.990;21.954;2023-02-28T16:27:19;193.55;;;132.88;;
55268;SDS011;41131;42.990;21.954;2023-02-28T16:29:46;243.77;;;172.38;;
55268;SDS011;41131;42.990;21.954;2023-02-28T16:32:15;282.27;;;217.70;;
55268;SDS011;41131;42.990;21.954;2023-02-28T16:34:42;238.10;;;186.20;;
55268;SDS011;41131;42.990;21.954;2023-02-28T16:37:15;98.22;;;61.63;;
55268;SDS011;41131;42.990;21.954;2023-02-28T16:39:42;78.35;;;47.17;;
55268;SDS011;41131;42.990;21.954;2023-02-28T16:42:10;71.13;;;41.83;;
55268;SDS011;41131;42.990;21.954;2023-02-28T16:44:38;82.40;;;50.47;;
55268;SDS011;41131;42.990;21.954;2023-02-28T16:47:05;77.60;;;46.97;;
55268;SDS011;41131;42.990;21.954;2023-02-28T16:49:31;85.82;;;51.50;;
55268;SDS011;41131;42.990;21.954;2023-02-28T16:51:57;82.65;;;50.75;;
55268;SDS011;41131;42.990;21.954;2023-02-28T16:54:24;105.38;;;67.22;;
55268;SDS011;41131;42.990;21.954;2023-02-28T16:56:50;110.30;;;72.35;;
55268;SDS011;41131;42.990;21.954;2023-02-28T16:59:18;106.45;;;66.68;;
55268;SDS011;41131;42.990;21.954;2023-02-28T17:01:45;124.70;;;83.35;;
55268;SDS011;41131;42.990;21.954;2023-02-28T17:04:11;143.50;;;95.47;;
55268;SDS011;41131;42.990;21.954;2023-02-28T17:06:37;133.65;;;86.45;;
55268;SDS011;41131;42.990;21.954;2023-02-28T17:09:04;122.57;;;76.43;;